^^
Station Historical Data
 
Daily Summary for August 04, 2015 Units:  English    Metric   Both
« Previous Day
Next Day »
Daily Weekly Monthly Yearly Custom
  Current: High: Low: Average:
Temperature: 85.6 °F 90.0 °F 75.3 °F 82.2 °F
Dew Point: 73.8 °F 77.4 °F 70.9 °F 74 °F
Humidity: 68% 91% 57% 77%
Wind Speed: 2.0mph 12.7mph 0.0mph 4.7mph
Wind Gust: 2.2mph 12.7mph - -
WindWest - - SW
Pressure: 30.01 in 30.05 in 29.94 in -
Precipitation: 0.00 in      
Historical Graphs
 
 
Tabular Data for August 04, 2015
Time Temperature Dew Point Pressure Wind Wind Speed Wind Gust Humidity Rainfall Rate (Hourly) solar Conditions
00:01 79.2 °F 72.9 °F 29.97 in South 4.6 mph 4.6 mph 81% 0.00 in 0.0 W/m2 SCT
00:06 79.2 °F 72.9 °F 29.97 in SW 3.5 mph 3.5 mph 81% 0.00 in 0.0 W/m2 SCT
00:11 79.2 °F 72.9 °F 29.97 in West 3.5 mph 3.5 mph 81% 0.00 in 0.0 W/m2 SCT
00:16 79.2 °F 72.9 °F 29.96 in SSW 3.5 mph 3.5 mph 81% 0.00 in 0.0 W/m2 SCT
00:21 79.3 °F 73.0 °F 29.96 in SW 2.3 mph 2.3 mph 81% 0.00 in 0.0 W/m2 SCT
00:26 79.3 °F 73.0 °F 29.96 in SW 2.3 mph 2.3 mph 81% 0.00 in 0.0 W/m2 SCT
00:31 79.2 °F 72.9 °F 29.96 in SW 4.6 mph 4.6 mph 81% 0.00 in 0.0 W/m2 SCT
00:36 79.2 °F 72.9 °F 29.96 in SW 5.0 mph 5.0 mph 81% 0.00 in 0.0 W/m2 SCT
00:41 79.2 °F 72.9 °F 29.96 in SW 3.5 mph 3.5 mph 81% 0.00 in 0.0 W/m2 SCT
00:46 79.1 °F 73.1 °F 29.96 in SSW 3.5 mph 3.5 mph 82% 0.00 in 0.0 W/m2 SCT
00:51 79.0 °F 73.0 °F 29.96 in ESE 3.5 mph 3.5 mph 82% 0.00 in 0.0 W/m2 SCT
00:56 78.8 °F 72.8 °F 29.96 in SSW 2.3 mph 2.3 mph 82% 0.00 in 0.0 W/m2 SCT
01:01 78.7 °F 73.1 °F 29.95 in SE 3.5 mph 3.5 mph 83% 0.00 in 0.0 W/m2 CLR
01:06 78.6 °F 73.0 °F 29.95 in South 3.5 mph 3.5 mph 83% 0.00 in 0.0 W/m2 CLR
01:11 78.4 °F 73.2 °F 29.95 in SW 2.3 mph 2.3 mph 84% 0.00 in 0.0 W/m2 CLR
01:16 78.2 °F 73.0 °F 29.95 in SE 1.2 mph 1.2 mph 84% 0.00 in 0.0 W/m2 CLR
01:21 78.2 °F 73.0 °F 29.95 in SSW 2.3 mph 2.3 mph 84% 0.00 in 0.0 W/m2 CLR
01:26 78.1 °F 73.2 °F 29.94 in SSE 2.3 mph 2.3 mph 85% 0.00 in 0.0 W/m2 CLR
01:31 77.9 °F 73.0 °F 29.94 in SE 2.3 mph   85% 0.00 in 0.0 W/m2 BKN
01:36 77.8 °F 73.3 °F 29.94 in SE 4.0 mph 4.0 mph 86% 0.00 in 0.0 W/m2 BKN
01:41 77.7 °F 73.2 °F 29.94 in SE 2.0 mph 2.0 mph 86% 0.00 in 0.0 W/m2 BKN
01:46 77.6 °F 73.4 °F 29.94 in SW 1.2 mph 1.2 mph 87% 0.00 in 0.0 W/m2 BKN
01:51 77.5 °F 73.3 °F 29.94 in SSW 3.0 mph 3.0 mph 87% 0.00 in 0.0 W/m2 BKN
01:56 77.5 °F 73.3 °F 29.94 in WSW 3.5 mph 3.5 mph 87% 0.00 in 0.0 W/m2 BKN
02:01 77.5 °F 73.7 °F 29.94 in SW 1.2 mph 1.2 mph 88% 0.00 in 0.0 W/m2 FEW
02:06 77.5 °F 73.7 °F 29.94 in SSE 4.6 mph 4.6 mph 88% 0.00 in 0.0 W/m2 FEW
02:11 77.5 °F 73.3 °F 29.94 in SSW 3.5 mph 3.5 mph 87% 0.00 in 0.0 W/m2 FEW
02:16 77.5 °F 73.3 °F 29.94 in WSW 2.3 mph 2.3 mph 87% 0.00 in 0.0 W/m2 FEW
02:21 77.6 °F 73.4 °F 29.95 in SW 2.3 mph 2.3 mph 87% 0.00 in 0.0 W/m2 FEW
02:26 77.6 °F 73.4 °F 29.95 in SSW 2.3 mph 2.3 mph 87% 0.00 in 0.0 W/m2 FEW
02:31 77.6 °F 73.4 °F 29.95 in SW 4.6 mph 4.6 mph 87% 0.00 in 0.0 W/m2 FEW
02:36 77.6 °F 73.4 °F 29.95 in South 3.5 mph 3.5 mph 87% 0.00 in 0.0 W/m2 FEW
02:41 77.5 °F 73.3 °F 29.95 in SW 4.0 mph 4.0 mph 87% 0.00 in 0.0 W/m2 FEW
02:46 77.5 °F 73.3 °F 29.95 in SSW 5.8 mph 5.8 mph 87% 0.00 in 0.0 W/m2 FEW
02:51 77.5 °F 73.3 °F 29.95 in SSW 3.5 mph 3.5 mph 87% 0.00 in 0.0 W/m2 FEW
02:56 77.5 °F 73.3 °F 29.95 in SW 2.3 mph 2.3 mph 87% 0.00 in 0.0 W/m2 FEW
03:01 77.4 °F 73.2 °F 29.95 in SSE 3.5 mph 3.5 mph 87% 0.00 in 0.0 W/m2 CLR
03:06 77.4 °F 73.6 °F 29.95 in South 2.3 mph 2.3 mph 88% 0.00 in 0.0 W/m2 CLR
03:11 77.3 °F 73.5 °F 29.95 in SE 3.5 mph 3.5 mph 88% 0.00 in 0.0 W/m2 CLR
03:16 77.2 °F 73.4 °F 29.95 in South 3.5 mph 3.5 mph 88% 0.00 in 0.0 W/m2 CLR
03:21 77.1 °F 73.3 °F 29.95 in South 3.0 mph 3.0 mph 88% 0.00 in 0.0 W/m2 CLR
03:26 77.1 °F 73.6 °F 29.95 in SW 4.6 mph 4.6 mph 89% 0.00 in 0.0 W/m2 CLR
03:31 77.0 °F 73.5 °F 29.95 in SW 3.5 mph 3.5 mph 89% 0.00 in 0.0 W/m2 CLR
03:36 76.9 °F 73.4 °F 29.94 in SSE 2.3 mph 2.3 mph 89% 0.00 in 0.0 W/m2 CLR
03:41 76.9 °F 73.4 °F 29.95 in Calm   0.1 mph 89% 0.00 in 0.0 W/m2 CLR
03:46 76.8 °F 73.3 °F 29.95 in South 2.3 mph 2.3 mph 89% 0.00 in 0.0 W/m2 CLR
03:51 76.8 °F 73.3 °F 29.95 in SSE 1.2 mph 1.2 mph 89% 0.00 in 0.0 W/m2 CLR
03:56 76.8 °F 73.3 °F 29.95 in SW 3.5 mph 3.5 mph 89% 0.00 in 0.0 W/m2 CLR
04:01 76.7 °F 73.2 °F 29.95 in SE 2.3 mph 2.3 mph 89% 0.00 in 0.0 W/m2 CLR
04:06 76.7 °F 73.5 °F 29.95 in SSW 2.3 mph 2.3 mph 90% 0.00 in 0.0 W/m2 CLR
04:11 76.7 °F 73.5 °F 29.95 in SSW 2.3 mph 2.3 mph 90% 0.00 in 0.0 W/m2 CLR
04:16 76.7 °F 73.5 °F 29.95 in SSW 3.5 mph 3.5 mph 90% 0.00 in 0.0 W/m2 CLR
04:21 76.6 °F 73.4 °F 29.95 in SSE 3.5 mph 3.5 mph 90% 0.00 in 0.0 W/m2 CLR
04:26 76.6 °F 73.4 °F 29.95 in SE 2.3 mph 2.3 mph 90% 0.00 in 0.0 W/m2 CLR
04:31 76.6 °F 73.4 °F 29.95 in SSE 1.2 mph 1.2 mph 90% 0.00 in 0.0 W/m2 CLR
04:36 76.5 °F 73.3 °F 29.96 in SW 2.3 mph 2.3 mph 90% 0.00 in 0.0 W/m2 CLR
04:41 76.5 °F 73.3 °F 29.96 in SE 3.5 mph 3.5 mph 90% 0.00 in 0.0 W/m2 CLR
04:46 76.4 °F 73.2 °F 29.96 in SW 3.0 mph 3.0 mph 90% 0.00 in 0.0 W/m2 CLR
04:51 76.4 °F 73.2 °F 29.96 in South 3.5 mph 3.5 mph 90% 0.00 in 0.0 W/m2 CLR
04:56 76.4 °F 73.6 °F 29.96 in SSW 2.3 mph 2.3 mph 91% 0.00 in 0.0 W/m2 CLR
05:01 76.3 °F 73.5 °F 29.96 in SSE 3.5 mph 3.5 mph 91% 0.00 in 0.0 W/m2 CLR
05:06 76.3 °F 73.5 °F 29.96 in SW 2.3 mph 2.3 mph 91% 0.00 in 0.0 W/m2 CLR
05:11 76.4 °F 73.6 °F 29.96 in SSE 3.5 mph 3.5 mph 91% 0.00 in 0.0 W/m2 CLR
05:16 76.4 °F 73.6 °F 29.96 in SSW 3.5 mph 3.5 mph 91% 0.00 in 0.0 W/m2 CLR
05:21 76.4 °F 73.2 °F 29.97 in SW 2.3 mph 2.3 mph 90% 0.00 in 0.0 W/m2 CLR
05:26 76.4 °F 73.2 °F 29.97 in SW 2.3 mph 2.3 mph 90% 0.00 in 0.0 W/m2 CLR
05:31 76.4 °F 73.2 °F 29.97 in SE 2.3 mph 2.3 mph 90% 0.00 in 0.0 W/m2 CLR
05:36 76.3 °F 73.5 °F 29.98 in SE 2.3 mph 2.3 mph 91% 0.00 in 0.0 W/m2 CLR
05:41 76.2 °F 73.4 °F 29.98 in South 2.3 mph 2.3 mph 91% 0.00 in 0.0 W/m2 CLR
05:46 76.2 °F 73.4 °F 29.98 in South 2.0 mph 2.0 mph 91% 0.00 in 0.0 W/m2 BKN
05:51 76.2 °F 73.4 °F 29.98 in ESE 2.3 mph 2.3 mph 91% 0.00 in 0.0 W/m2 BKN
05:56 76.1 °F 73.3 °F 29.98 in SSW 3.5 mph 3.5 mph 91% 0.00 in 0.0 W/m2 BKN
06:01 76.0 °F 73.2 °F 29.98 in SSW 2.3 mph 2.3 mph 91% 0.00 in 0.0 W/m2 SCT
06:06 75.9 °F 73.1 °F 29.98 in SE 2.3 mph 2.3 mph 91% 0.00 in 0.0 W/m2 SCT
06:11 75.9 °F 73.1 °F 29.98 in SSE 1.2 mph 1.2 mph 91% 0.00 in 0.0 W/m2 SCT
06:16 75.9 °F 73.1 °F 29.98 in SSW 1.2 mph 1.2 mph 91% 0.00 in 0.0 W/m2 SCT
06:21 75.8 °F 73.0 °F 29.98 in Calm     91% 0.00 in 0.0 W/m2 SCT
06:26 75.7 °F 72.9 °F 29.98 in SE 1.2 mph 1.2 mph 91% 0.00 in 0.0 W/m2 SCT
06:31 75.7 °F 72.9 °F 29.98 in South 2.3 mph 2.3 mph 91% 0.00 in 0.0 W/m2 SCT
06:36 75.7 °F 72.9 °F 29.99 in South 1.2 mph 1.2 mph 91% 0.00 in 0.0 W/m2 SCT
06:41 75.6 °F 72.8 °F 29.99 in SE 1.2 mph 1.2 mph 91% 0.00 in 0.0 W/m2 SCT
06:46 75.6 °F 72.5 °F 29.99 in SE 4.0 mph 4.0 mph 90% 0.00 in 0.0 W/m2 SCT
06:51 75.5 °F 72.4 °F 29.99 in SSE 2.0 mph 2.0 mph 90% 0.00 in 0.0 W/m2 SCT
06:56 75.4 °F 72.3 °F 29.99 in SE 1.2 mph 1.2 mph 90% 0.00 in 0.0 W/m2 SCT
07:01 75.4 °F 72.3 °F 29.99 in SSE 2.3 mph 2.3 mph 90% 0.00 in 0.0 W/m2 SCT
07:06 75.3 °F 72.2 °F 30.00 in SSE 2.3 mph 2.3 mph 90% 0.00 in 0.0 W/m2 SCT
07:11 75.3 °F 72.2 °F 30.00 in Calm   0.4 mph 90% 0.00 in 0.0 W/m2 SCT
07:16 75.3 °F 72.2 °F 30.00 in WSW 4.6 mph 4.6 mph 90% 0.00 in 0.0 W/m2 SCT
07:21 75.5 °F 72.0 °F 30.00 in South 2.3 mph 2.3 mph 89% 0.00 in 0.0 W/m2 SCT
07:26 75.6 °F 72.1 °F 30.00 in SSW 2.3 mph 2.3 mph 89% 0.00 in 0.0 W/m2 SCT
07:31 75.7 °F 71.9 °F 30.00 in SSE 2.3 mph 2.3 mph 88% 0.00 in 0.0 W/m2 SCT
07:36 75.9 °F 72.1 °F 30.00 in South 2.3 mph 2.3 mph 88% 0.00 in 0.0 W/m2 SCT
07:41 76.0 °F 72.2 °F 30.00 in SSW 3.5 mph 3.5 mph 88% 0.00 in 0.0 W/m2 SCT
07:46 76.0 °F 72.2 °F 30.00 in SSE 2.0 mph 2.0 mph 88% 0.00 in 0.0 W/m2 SCT
07:51 76.1 °F 71.9 °F 30.01 in SSW 2.0 mph 2.0 mph 87% 0.00 in 0.0 W/m2 SCT
07:56 76.4 °F 72.2 °F 30.01 in SW 2.3 mph 2.3 mph 87% 0.00 in 0.0 W/m2 SCT
08:01 76.6 °F 72.1 °F 30.01 in SSW 3.5 mph 3.5 mph 86% 0.00 in 0.0 W/m2 CLR
08:06 76.8 °F 72.3 °F 30.01 in SSW 3.5 mph 3.5 mph 86% 0.00 in 0.0 W/m2 CLR
08:11 76.9 °F 72.0 °F 30.01 in West 3.5 mph 3.5 mph 85% 0.00 in 0.0 W/m2 CLR
08:16 77.1 °F 72.2 °F 30.01 in SSW 3.5 mph 3.5 mph 85% 0.00 in 0.0 W/m2 CLR
08:21 77.3 °F 72.1 °F 30.02 in South 3.5 mph 3.5 mph 84% 0.00 in 0.0 W/m2 CLR
08:26 77.7 °F 72.5 °F 30.02 in SSW 4.6 mph 4.6 mph 84% 0.00 in 0.0 W/m2 CLR
08:31 78.0 °F 72.4 °F 30.02 in South 5.0 mph 5.0 mph 83% 0.00 in 0.0 W/m2 CLR
08:36 78.3 °F 72.0 °F 30.01 in SW 5.8 mph 5.8 mph 81% 0.00 in 0.0 W/m2 CLR
08:41 78.6 °F 71.9 °F 30.01 in SW 6.0 mph 6.0 mph 80% 0.00 in 0.0 W/m2 CLR
08:46 78.9 °F 72.2 °F 30.01 in South 10.4 mph 10.4 mph 80% 0.00 in 0.0 W/m2 CLR
08:51 79.2 °F 72.5 °F 30.02 in West 5.0 mph 5.0 mph 80% 0.00 in 0.0 W/m2 CLR
08:56 79.5 °F 72.4 °F 30.02 in SW 6.0 mph 6.0 mph 79% 0.00 in 0.0 W/m2 CLR
09:01 79.9 °F 72.8 °F 30.02 in SSW 4.6 mph 4.6 mph 79% 0.00 in 0.0 W/m2 CLR
09:06 80.3 °F 73.2 °F 30.01 in SSW 4.6 mph 4.6 mph 79% 0.00 in 0.0 W/m2 CLR
09:11 80.4 °F 72.9 °F 30.02 in SSW 9.2 mph 9.2 mph 78% 0.00 in 0.0 W/m2 CLR
09:16 80.6 °F 73.5 °F 30.02 in West 5.8 mph 5.8 mph 79% 0.00 in 0.0 W/m2 CLR
09:21 81.1 °F 73.6 °F 30.02 in SSW 8.1 mph 8.1 mph 78% 0.00 in 0.0 W/m2 CLR
09:26 81.6 °F 74.1 °F 30.02 in SW 9.2 mph 9.2 mph 78% 0.00 in 0.0 W/m2 CLR
09:31 82.0 °F 74.8 °F 30.02 in SSE 3.5 mph 3.5 mph 79% 0.00 in 0.0 W/m2 CLR
09:36 82.5 °F 75.3 °F 30.02 in SW 6.0 mph 6.0 mph 79% 0.00 in 0.0 W/m2 CLR
09:41 82.8 °F 75.2 °F 30.02 in SSW 5.8 mph 5.8 mph 78% 0.00 in 0.0 W/m2 CLR
09:46 83.1 °F 75.5 °F 30.02 in WSW 9.2 mph 9.2 mph 78% 0.00 in 0.0 W/m2 CLR
09:51 83.6 °F 76.4 °F 30.02 in SSW 10.0 mph 10.0 mph 79% 0.00 in 0.0 W/m2 CLR
09:56 83.9 °F 76.3 °F 30.02 in WNW 8.1 mph 8.1 mph 78% 0.00 in 0.0 W/m2 CLR
10:01 84.1 °F 76.5 °F 30.03 in WSW 9.2 mph 9.2 mph 78% 0.00 in 0.0 W/m2 CLR
10:06 83.9 °F 76.7 °F 30.03 in SSW 4.6 mph 4.6 mph 79% 0.00 in 0.0 W/m2 CLR
10:11 83.9 °F 76.7 °F 30.03 in West 3.5 mph 3.5 mph 79% 0.00 in 0.0 W/m2 CLR
10:16 83.8 °F 76.6 °F 30.03 in SSE 6.0 mph 6.0 mph 79% 0.00 in 0.0 W/m2 CLR
10:21 83.8 °F 76.6 °F 30.03 in WSW 10.4 mph 10.4 mph 79% 0.00 in 0.0 W/m2 CLR
10:26 83.9 °F 76.7 °F 30.03 in WSW 9.2 mph 9.2 mph 79% 0.00 in 0.0 W/m2 CLR
10:31 83.9 °F 77.1 °F 30.03 in SE 8.1 mph 8.1 mph 80% 0.00 in 0.0 W/m2 CLR
10:36 84.3 °F 77.1 °F 30.03 in WSW 8.0 mph 8.0 mph 79% 0.00 in 0.0 W/m2 CLR
10:41 84.5 °F 77.3 °F 30.03 in SSW 6.9 mph 6.9 mph 79% 0.00 in 0.0 W/m2 CLR
10:46 84.8 °F 77.2 °F 30.03 in SSW 10.0 mph 10.0 mph 78% 0.00 in 0.0 W/m2 CLR
10:51 84.6 °F 77.4 °F 30.03 in WSW 8.1 mph 8.1 mph 79% 0.00 in 0.0 W/m2 CLR
10:56 84.5 °F 76.9 °F 30.03 in WSW 9.2 mph 9.2 mph 78% 0.00 in 0.0 W/m2 CLR
11:01 84.6 °F 76.6 °F 30.03 in WSW 6.9 mph 6.9 mph 77% 0.00 in 0.0 W/m2 SCT
11:06 84.6 °F 76.2 °F 30.03 in SW 7.0 mph 7.0 mph 76% 0.00 in 0.0 W/m2 SCT
11:11 84.7 °F 76.7 °F 30.03 in SW 4.6 mph 4.6 mph 77% 0.00 in 0.0 W/m2 SCT
11:16 85.1 °F 77.1 °F 30.04 in West 8.1 mph 8.1 mph 77% 0.00 in 0.0 W/m2 SCT
11:21 85.2 °F 76.8 °F 30.04 in SW 8.1 mph 8.1 mph 76% 0.00 in 0.0 W/m2 SCT
11:26 85.4 °F 76.2 °F 30.04 in West 5.8 mph 5.8 mph 74% 0.00 in 0.0 W/m2 SCT
11:31 85.4 °F 76.2 °F 30.05 in WSW 9.2 mph 9.2 mph 74% 0.00 in 0.0 W/m2 SCT
11:36 85.6 °F 76.4 °F 30.04 in SW 5.8 mph 5.8 mph 74% 0.00 in 0.0 W/m2 SCT
11:41 85.6 °F 76.8 °F 30.04 in WSW 4.0 mph 4.3 mph 75% 0.00 in 0.0 W/m2 SCT
11:46 85.7 °F 76.0 °F 30.04 in West 5.0 mph 5.0 mph 73% 0.00 in 0.0 W/m2 SCT
11:51 85.7 °F 76.5 °F 30.04 in SW 5.0 mph 5.0 mph 74% 0.00 in 0.0 W/m2 SCT
11:56 85.9 °F 76.6 °F 30.04 in NW 4.6 mph 4.6 mph 74% 0.00 in 0.0 W/m2 SCT
12:01 85.9 °F 76.2 °F 30.04 in WSW 4.6 mph 4.6 mph 73% 0.00 in 0.0 W/m2 SCT
12:06 85.8 °F 77.0 °F 30.04 in SSW 3.5 mph 3.5 mph 75% 0.00 in 0.0 W/m2 SCT
12:11 86.0 °F 76.3 °F 30.04 in WSW 5.0 mph 5.0 mph 73% 0.00 in 0.0 W/m2 SCT
12:16 86.0 °F 75.9 °F 30.04 in WSW 5.8 mph 5.8 mph 72% 0.00 in 0.0 W/m2 SCT
12:21 86.1 °F 76.0 °F 30.04 in West 4.6 mph 4.6 mph 72% 0.00 in 0.0 W/m2 SCT
12:26 86.2 °F 76.5 °F 30.04 in West 4.0 mph 4.0 mph 73% 0.00 in 0.0 W/m2 SCT
12:31 86.2 °F 75.7 °F 30.04 in WSW 3.5 mph 3.5 mph 71% 0.00 in 0.0 W/m2 SCT
12:36 86.6 °F 75.2 °F 30.04 in WSW 4.6 mph 4.6 mph 69% 0.00 in 0.0 W/m2 SCT
12:41 87.0 °F 76.0 °F 30.04 in WSW 3.5 mph 3.5 mph 70% 0.00 in 0.0 W/m2 SCT
12:46 87.8 °F 76.8 °F 30.03 in WNW 3.5 mph 3.5 mph 70% 0.00 in 0.0 W/m2 SCT
12:51 88.1 °F 74.8 °F 30.03 in SSW 5.8 mph 5.8 mph 65% 0.00 in 0.0 W/m2 SCT
12:56 88.4 °F 75.6 °F 30.03 in SW 5.8 mph 5.8 mph 66% 0.00 in 0.0 W/m2 SCT
13:01 88.3 °F 75.0 °F 30.03 in SW 11.5 mph 11.5 mph 65% 0.00 in 0.0 W/m2 SCT
13:06 88.1 °F 75.3 °F 30.03 in SSW 3.5 mph 3.5 mph 66% 0.00 in 0.0 W/m2 SCT
13:11 88.6 °F 74.4 °F 30.03 in West 6.9 mph 6.9 mph 63% 0.00 in 0.0 W/m2 SCT
13:16 88.7 °F 74.5 °F 30.03 in SSE 6.9 mph 6.9 mph 63% 0.00 in 0.0 W/m2 SCT
13:21 89.1 °F 74.9 °F 30.03 in WSW 4.0 mph 4.0 mph 63% 0.00 in 0.0 W/m2 SCT
13:26 88.9 °F 74.7 °F 30.03 in WSW 9.2 mph 9.2 mph 63% 0.00 in 0.0 W/m2 SCT
13:31 89.0 °F 74.8 °F 30.03 in West 5.0 mph 5.0 mph 63% 0.00 in 0.0 W/m2 SCT
13:36 89.0 °F 75.2 °F 30.03 in WSW 6.0 mph 6.0 mph 64% 0.00 in 0.0 W/m2 SCT
13:41 89.2 °F 74.0 °F 30.03 in West 9.2 mph 9.2 mph 61% 0.00 in 0.0 W/m2 SCT
13:46 89.2 °F 73.5 °F 30.03 in WSW 8.1 mph 8.1 mph 60% 0.00 in 0.0 W/m2 SCT
13:51 89.2 °F 73.5 °F 30.03 in WNW 8.1 mph 8.1 mph 60% 0.00 in 0.0 W/m2 SCT
13:56 89.3 °F 74.1 °F 30.03 in SW 5.8 mph 5.8 mph 61% 0.00 in 0.0 W/m2 SCT
14:01 89.4 °F 73.7 °F 30.03 in West 4.6 mph 4.6 mph 60% 0.00 in 0.0 W/m2 SCT
14:06 89.6 °F 73.9 °F 30.03 in WSW 8.1 mph 8.1 mph 60% 0.00 in 0.0 W/m2 SCT
14:11 89.8 °F 73.0 °F 30.02 in WSW 8.0 mph 8.0 mph 58% 0.00 in 0.0 W/m2 SCT
14:16 89.9 °F 73.7 °F 30.03 in West 10.4 mph 10.4 mph 59% 0.00 in 0.0 W/m2 SCT
14:21 90.0 °F 73.7 °F 30.02 in WNW 4.6 mph 4.6 mph 59% 0.00 in 0.0 W/m2 SCT
14:26 90.0 °F 72.7 °F 30.02 in WSW 10.4 mph 10.4 mph 57% 0.00 in 0.0 W/m2 SCT
14:31 89.8 °F 74.1 °F 30.02 in WNW 7.0 mph 7.0 mph 60% 0.00 in 0.0 W/m2 SCT
14:36 89.9 °F 74.2 °F 30.03 in West 12.7 mph 12.7 mph 60% 0.00 in 0.0 W/m2 SCT
14:41 89.5 °F 74.8 °F 30.03 in SW 11.5 mph 11.5 mph 62% 0.00 in 0.0 W/m2 SCT
14:46 87.5 °F 74.7 °F 30.03 in NW 10.4 mph 10.4 mph 66% 0.00 in 0.0 W/m2 SCT
14:51 87.4 °F 74.6 °F 30.03 in WNW 8.1 mph 8.1 mph 66% 0.00 in 0.0 W/m2 SCT
14:56 86.9 °F 75.1 °F 30.02 in WNW 8.1 mph 8.1 mph 68% 0.00 in 0.0 W/m2 SCT
15:01 86.8 °F 74.5 °F 30.02 in WNW 8.1 mph 8.1 mph 67% 0.00 in 0.0 W/m2 FEW
15:06 86.4 °F 73.7 °F 30.02 in WSW 11.5 mph 11.5 mph 66% 0.00 in 0.0 W/m2 FEW
15:11 86.0 °F 73.8 °F 30.02 in WSW 9.2 mph 9.2 mph 67% 0.00 in 0.0 W/m2 FEW
15:16 86.2 °F 73.5 °F 30.02 in West 11.5 mph 11.5 mph 66% 0.00 in 0.0 W/m2 FEW
15:21 86.3 °F 74.0 °F 30.02 in WNW 9.2 mph 9.2 mph 67% 0.00 in 0.0 W/m2 FEW
15:26 86.6 °F 74.3 °F 30.02 in WSW 8.1 mph 8.1 mph 67% 0.00 in 0.0 W/m2 FEW
15:31 86.6 °F 74.3 °F 30.02 in WNW 8.1 mph 8.1 mph 67% 0.00 in 0.0 W/m2 FEW
15:36 86.5 °F 74.2 °F 30.01 in WNW 5.8 mph 5.8 mph 67% 0.00 in 0.0 W/m2 FEW
15:41 87.1 °F 75.7 °F 30.01 in WNW 4.6 mph 4.6 mph 69% 0.00 in 0.0 W/m2 FEW
15:46 87.4 °F 75.1 °F 30.01 in West 9.2 mph 9.2 mph 67% 0.00 in 0.0 W/m2 FEW
15:51 87.5 °F 75.2 °F 30.01 in West 5.8 mph 5.8 mph 67% 0.00 in 0.0 W/m2 FEW
15:56 88.1 °F 75.8 °F 30.00 in WSW 4.6 mph 4.6 mph 67% 0.00 in 0.0 W/m2 FEW
16:01 88.0 °F 75.7 °F 30.00 in WSW 8.1 mph 8.1 mph 67% 0.00 in 0.0 W/m2 CLR
16:06 88.1 °F 77.1 °F 30.00 in West 3.5 mph 3.5 mph 70% 0.00 in 0.0 W/m2 CLR
16:11 88.3 °F 75.9 °F 30.00 in West 4.6 mph 4.6 mph 67% 0.00 in 0.0 W/m2 CLR
16:21 87.9 °F 76.0 °F 30.01 in SSW 4.6 mph 4.6 mph 68% 0.00 in 0.0 W/m2 CLR
16:26 87.9 °F 75.6 °F 30.00 in SW 4.0 mph 4.0 mph 67% 0.00 in 0.0 W/m2 CLR
16:31 87.9 °F 76.5 °F 30.00 in WSW 6.0 mph 6.0 mph 69% 0.00 in 0.0 W/m2 CLR
16:36 87.3 °F 75.9 °F 30.01 in SW 5.8 mph 5.8 mph 69% 0.00 in 0.0 W/m2 CLR
16:41 86.9 °F 75.9 °F 30.01 in West 11.5 mph 11.5 mph 70% 0.00 in 0.0 W/m2 CLR
16:46 86.3 °F 75.8 °F 30.02 in WSW 11.5 mph 11.5 mph 71% 0.00 in 0.0 W/m2 CLR
16:51 86.2 °F 75.3 °F 30.02 in NW 5.8 mph 5.8 mph 70% 0.00 in 0.0 W/m2 CLR
16:56 86.1 °F 74.7 °F 30.01 in WSW 6.0 mph 6.0 mph 69% 0.00 in 0.0 W/m2 CLR
17:01 86.2 °F 74.8 °F 30.01 in WNW 3.5 mph 3.5 mph 69% 0.00 in 0.0 W/m2 BKN
17:06 86.5 °F 75.1 °F 30.01 in West 6.9 mph 6.9 mph 69% 0.00 in 0.0 W/m2 BKN
17:11 86.6 °F 74.3 °F 30.01 in West 5.8 mph 5.8 mph 67% 0.00 in 0.0 W/m2 BKN
17:16 86.6 °F 74.8 °F 30.01 in West 4.0 mph 4.0 mph 68% 0.00 in 0.0 W/m2 BKN
17:21 86.9 °F 74.2 °F 30.00 in WSW 2.3 mph 2.3 mph 66% 0.00 in 0.0 W/m2 BKN
17:26 87.6 °F 73.4 °F 30.00 in SW 8.0 mph 8.0 mph 63% 0.00 in 0.0 W/m2 BKN
17:31 87.7 °F 71.6 °F 30.00 in SW 5.8 mph 5.8 mph 59% 0.00 in 0.0 W/m2 BKN
17:36 87.6 °F 71.5 °F 30.00 in WSW 4.6 mph 4.6 mph 59% 0.00 in 0.0 W/m2 BKN
17:41 87.6 °F 72.0 °F 30.00 in West 3.5 mph 3.5 mph 60% 0.00 in 0.0 W/m2 BKN
17:46 87.5 °F 70.9 °F 30.00 in SW 5.8 mph 5.8 mph 58% 0.00 in 0.0 W/m2 BKN
17:51 87.2 °F 71.1 °F 30.00 in WSW 8.1 mph 8.1 mph 59% 0.00 in 0.0 W/m2 BKN
17:56 87.3 °F 72.2 °F 30.00 in WNW 3.5 mph 3.5 mph 61% 0.00 in 0.0 W/m2 BKN
18:01 87.3 °F 71.7 °F 30.00 in West 6.9 mph 6.9 mph 60% 0.00 in 0.0 W/m2 CLR
18:06 87.2 °F 71.6 °F 30.00 in WNW 6.9 mph 6.9 mph 60% 0.00 in 0.0 W/m2 CLR
18:11 87.3 °F 72.7 °F 30.00 in SSW 3.5 mph 3.5 mph 62% 0.00 in 0.0 W/m2 CLR
18:16 87.5 °F 72.4 °F 30.00 in West 4.6 mph 4.6 mph 61% 0.00 in 0.0 W/m2 CLR
18:21 87.8 °F 72.7 °F 30.00 in WNW 4.6 mph 4.6 mph 61% 0.00 in 0.0 W/m2 CLR
18:26 87.9 °F 73.3 °F 30.00 in SSW 3.0 mph 3.0 mph 62% 0.00 in 0.0 W/m2 CLR
18:31 88.0 °F 73.3 °F 30.01 in SSW 4.6 mph 4.6 mph 62% 0.00 in 0.0 W/m2 CLR
18:36 88.0 °F 72.9 °F 30.01 in NNW 2.3 mph 2.3 mph 61% 0.00 in 0.0 W/m2 CLR
18:41 88.4 °F 73.2 °F 30.01 in NNW 1.2 mph 1.2 mph 61% 0.00 in 0.0 W/m2 CLR
18:46 88.2 °F 73.0 °F 30.01 in WSW 3.5 mph 3.5 mph 61% 0.00 in 0.0 W/m2 CLR
18:51 87.7 °F 73.5 °F 30.01 in WNW 3.5 mph 3.5 mph 63% 0.00 in 0.0 W/m2 CLR
18:56 87.6 °F 74.4 °F 30.01 in WNW 1.2 mph 1.2 mph 65% 0.00 in 0.0 W/m2 CLR
19:01 87.4 °F 73.3 °F 30.01 in West 3.0 mph 3.0 mph 63% 0.00 in 0.0 W/m2 CLR
19:06 87.2 °F 73.5 °F 30.01 in WSW 2.3 mph 2.3 mph 64% 0.00 in 0.0 W/m2 CLR
19:11 87.2 °F 73.5 °F 30.01 in SW 3.5 mph 3.5 mph 64% 0.00 in 0.0 W/m2 CLR
19:16 87.0 °F 73.8 °F 30.01 in WSW 3.5 mph 3.5 mph 65% 0.00 in 0.0 W/m2 CLR
19:21 86.9 °F 73.7 °F 30.00 in WSW 3.5 mph 3.5 mph 65% 0.00 in 0.0 W/m2 CLR
19:26 86.9 °F 74.2 °F 30.01 in West 3.5 mph 3.5 mph 66% 0.00 in 0.0 W/m2 CLR
19:31 86.6 °F 73.9 °F 30.00 in WSW 3.5 mph 3.5 mph 66% 0.00 in 0.0 W/m2 CLR
19:36 86.4 °F 73.7 °F 30.01 in WSW 2.3 mph 2.3 mph 66% 0.00 in 0.0 W/m2 CLR
19:41 86.1 °F 73.9 °F 30.01 in West 3.5 mph 3.5 mph 67% 0.00 in 0.0 W/m2 CLR
19:46 85.8 °F 74.0 °F 30.01 in WNW 2.3 mph 2.3 mph 68% 0.00 in 0.0 W/m2 CLR
19:51 85.6 °F 73.8 °F 30.01 in West 2.0 mph 2.2 mph 68% 0.00 in 0.0 W/m2 CLR
Lake Mary, FL, USA
Compliments of Weather Underground